createdAt,value
2019-05-16T00:00:13.840Z,17.95
2019-05-16T00:02:44.120Z,17.07
2019-05-16T00:05:14.276Z,16.95
2019-05-16T00:07:44.558Z,17.05
2019-05-16T00:10:14.849Z,17.60
2019-05-16T00:12:48.668Z,16.27
2019-05-16T00:15:18.507Z,16.80
2019-05-16T00:17:49.024Z,16.20
2019-05-16T00:20:19.297Z,16.93
2019-05-16T00:22:49.410Z,17.40
2019-05-16T00:25:19.533Z,17.25
2019-05-16T00:27:49.767Z,17.12
2019-05-16T00:30:19.959Z,16.93
2019-05-16T00:32:50.179Z,16.27
2019-05-16T00:35:20.389Z,17.12
2019-05-16T00:37:50.576Z,17.23
2019-05-16T00:40:20.825Z,17.25
2019-05-16T00:42:50.948Z,16.35
2019-05-16T00:45:21.138Z,16.37
2019-05-16T00:47:51.259Z,16.25
2019-05-16T00:50:21.412Z,16.90
2019-05-16T00:52:51.839Z,16.77
2019-05-16T00:55:21.963Z,17.05
2019-05-16T00:57:52.128Z,15.68
2019-05-16T01:00:45.223Z,16.17
2019-05-16T01:03:15.368Z,16.15
2019-05-16T01:05:47.903Z,16.57
2019-05-16T01:08:18.813Z,16.12
2019-05-16T01:10:51.580Z,16.25
2019-05-16T01:13:21.083Z,16.97
2019-05-16T01:15:51.199Z,16.17
2019-05-16T01:18:21.327Z,16.02
2019-05-16T01:20:51.445Z,16.27
2019-05-16T01:23:21.600Z,16.45
2019-05-16T01:25:51.834Z,15.18
2019-05-16T01:28:22.084Z,16.65
2019-05-16T01:30:52.248Z,15.70
2019-05-16T01:33:22.701Z,15.55
2019-05-16T01:35:52.826Z,14.83
2019-05-16T01:38:22.982Z,16.00
2019-05-16T01:40:53.116Z,15.43
2019-05-16T01:43:23.275Z,15.85
2019-05-16T01:45:53.459Z,16.05
2019-05-16T01:48:23.620Z,15.70
2019-05-16T01:50:53.960Z,15.03
2019-05-16T01:53:24.087Z,14.75
2019-05-16T01:55:54.254Z,15.50
2019-05-16T01:58:24.452Z,15.10
2019-05-16T02:01:05.381Z,15.10
2019-05-16T02:03:28.242Z,15.18
2019-05-16T02:06:00.152Z,14.65
2019-05-16T02:08:30.279Z,13.70
2019-05-16T02:11:00.404Z,14.35
2019-05-16T02:13:30.563Z,14.20
2019-05-16T02:16:00.724Z,14.55
2019-05-16T02:18:30.903Z,13.88
2019-05-16T02:21:01.490Z,14.23
2019-05-16T02:23:31.909Z,14.00
2019-05-16T02:26:02.100Z,14.18
2019-05-16T02:28:39.784Z,13.58
2019-05-16T02:31:04.384Z,13.25
2019-05-16T02:33:34.768Z,14.35
2019-05-16T02:36:04.937Z,12.78
2019-05-16T02:38:35.079Z,14.05
2019-05-16T02:41:05.237Z,13.25
2019-05-16T02:43:35.362Z,12.78
2019-05-16T02:46:05.643Z,14.23
2019-05-16T02:48:35.808Z,13.55
2019-05-16T02:51:05.939Z,11.57
2019-05-16T02:53:36.068Z,10.58
2019-05-16T02:56:06.303Z,20.43
2019-05-16T02:58:36.426Z,28.77
2019-05-16T03:01:06.591Z,32.53
2019-05-16T03:03:36.717Z,31.70
2019-05-16T03:06:06.891Z,31.15
2019-05-16T03:08:37.008Z,43.20
2019-05-16T03:11:07.186Z,55.25
2019-05-16T03:13:37.300Z,40.00
2019-05-16T03:16:11.721Z,35.83
2019-05-16T03:18:42.416Z,34.25
2019-05-16T03:21:12.635Z,33.75
2019-05-16T03:23:42.783Z,31.48
2019-05-16T03:26:12.959Z,32.33
2019-05-16T03:28:44.123Z,31.55
2019-05-16T03:31:15.662Z,28.77
2019-05-16T03:33:56.335Z,29.02
2019-05-16T03:36:24.351Z,28.52
2019-05-16T03:38:50.714Z,26.40
2019-05-16T03:41:21.575Z,26.15
2019-05-16T03:43:51.824Z,26.23
2019-05-16T03:46:21.988Z,26.05
2019-05-16T03:48:52.379Z,24.70
2019-05-16T03:51:22.615Z,23.65
2019-05-16T03:53:52.762Z,23.45
2019-05-16T03:56:22.885Z,22.35
2019-05-16T03:58:53.072Z,21.33
2019-05-16T04:01:23.193Z,21.52
2019-05-16T04:03:53.310Z,20.08
2019-05-16T04:06:23.450Z,19.75
2019-05-16T04:08:53.598Z,18.55
2019-05-16T04:11:23.880Z,19.00
2019-05-16T04:13:54.267Z,18.73
2019-05-16T04:16:24.551Z,16.77
2019-05-16T04:18:54.708Z,16.00
2019-05-16T04:21:24.892Z,16.65
2019-05-16T04:23:55.141Z,16.57
2019-05-16T04:26:30.576Z,15.78
2019-05-16T04:29:00.985Z,15.48
2019-05-16T04:31:31.184Z,14.03
2019-05-16T04:34:01.474Z,14.95
2019-05-16T04:36:32.763Z,14.33
2019-05-16T04:39:05.728Z,14.30
2019-05-16T04:41:35.924Z,14.00
2019-05-16T04:44:06.224Z,14.83
2019-05-16T04:46:36.378Z,14.40
2019-05-16T04:49:06.504Z,14.87
2019-05-16T04:51:36.631Z,17.95
2019-05-16T04:54:07.319Z,17.32
2019-05-16T04:56:41.245Z,16.02
2019-05-16T04:59:16.166Z,16.93
2019-05-16T05:01:42.114Z,17.92
2019-05-16T05:04:15.344Z,15.75
2019-05-16T05:06:44.081Z,17.17
2019-05-16T05:09:14.334Z,19.05
2019-05-16T05:11:44.489Z,18.30
2019-05-16T05:14:14.607Z,18.42
2019-05-16T05:16:45.842Z,20.10
2019-05-16T05:19:16.185Z,18.85
2019-05-16T05:21:46.461Z,21.77
2019-05-16T05:24:16.684Z,25.30
2019-05-16T05:26:46.869Z,32.25
2019-05-16T05:29:17.054Z,34.83
2019-05-16T05:31:54.221Z,34.30
2019-05-16T05:34:20.033Z,33.75
2019-05-16T05:36:51.181Z,33.05
2019-05-16T05:39:21.559Z,35.52
2019-05-16T05:41:51.681Z,34.98
2019-05-16T05:44:22.535Z,32.17
2019-05-16T05:46:52.688Z,34.73
2019-05-16T05:49:22.855Z,33.75
2019-05-16T05:51:52.976Z,35.65
2019-05-16T05:54:23.136Z,34.03
2019-05-16T05:56:53.259Z,36.40
2019-05-16T05:59:23.374Z,35.48
2019-05-16T06:01:53.500Z,37.60
2019-05-16T06:04:23.648Z,38.20
2019-05-16T06:06:53.832Z,36.73
2019-05-16T06:09:29.001Z,36.93
2019-05-16T06:11:55.865Z,37.33
2019-05-16T06:14:26.260Z,37.78
2019-05-16T06:16:56.410Z,38.17
2019-05-16T06:19:26.539Z,36.55
2019-05-16T06:21:56.668Z,37.03
2019-05-16T06:24:26.817Z,37.88
2019-05-16T06:27:00.775Z,36.40
2019-05-16T06:29:31.051Z,37.15
2019-05-16T06:32:01.320Z,35.43
2019-05-16T06:34:31.448Z,35.78
2019-05-16T06:37:01.579Z,35.23
2019-05-16T06:39:41.638Z,35.88
2019-05-16T06:42:04.237Z,35.38
2019-05-16T06:44:34.371Z,37.28
2019-05-16T06:47:15.780Z,35.45
2019-05-16T06:49:36.319Z,36.17
2019-05-16T06:52:06.498Z,34.85
2019-05-16T06:54:36.623Z,36.10
2019-05-16T06:57:06.769Z,34.10
2019-05-16T06:59:36.983Z,35.95
2019-05-16T07:02:07.155Z,35.28
2019-05-16T07:04:39.715Z,34.25
2019-05-16T07:07:12.493Z,34.58
2019-05-16T07:09:57.019Z,34.48
2019-05-16T07:12:12.921Z,34.23
2019-05-16T07:14:43.038Z,34.35
2019-05-16T07:17:13.220Z,33.28
2019-05-16T07:19:43.511Z,35.35
2019-05-16T07:22:13.730Z,34.18
2019-05-16T07:24:43.885Z,33.30
2019-05-16T07:27:14.005Z,32.08
2019-05-16T07:29:44.169Z,33.25
2019-05-16T07:32:14.387Z,32.10
2019-05-16T07:34:45.500Z,32.98
2019-05-16T07:37:15.626Z,32.00
2019-05-16T07:39:45.774Z,32.63
2019-05-16T07:42:16.930Z,31.87
2019-05-16T07:44:47.046Z,33.55
2019-05-16T07:47:20.113Z,32.48
2019-05-16T07:49:50.275Z,31.95
2019-05-16T07:52:21.080Z,31.62
2019-05-16T07:54:51.335Z,31.17
2019-05-16T07:57:23.021Z,30.50
2019-05-16T07:59:54.253Z,30.23
2019-05-16T08:02:24.451Z,30.20
2019-05-16T08:04:54.573Z,30.82
2019-05-16T08:07:24.729Z,29.90
2019-05-16T08:09:54.856Z,31.42
2019-05-16T08:12:26.725Z,30.32
2019-05-16T08:14:57.119Z,30.17
2019-05-16T08:17:27.833Z,29.80
2019-05-16T08:20:00.025Z,29.67
2019-05-16T08:22:30.719Z,30.95
2019-05-16T08:25:01.101Z,28.67
2019-05-16T08:27:31.593Z,28.42
2019-05-16T08:30:02.621Z,28.62
2019-05-16T08:32:33.912Z,28.32
2019-05-16T08:35:04.385Z,28.98
2019-05-16T08:37:42.568Z,28.83
2019-05-16T08:40:06.733Z,28.87
2019-05-16T08:42:37.037Z,28.23
2019-05-16T08:45:11.928Z,28.12
2019-05-16T08:47:42.306Z,27.58
2019-05-16T08:50:14.362Z,27.48
2019-05-16T08:52:44.083Z,28.05
2019-05-16T08:55:16.526Z,28.35
2019-05-16T08:57:47.038Z,27.42
2019-05-16T09:00:21.437Z,27.45
2019-05-16T09:02:52.458Z,26.12
2019-05-16T09:05:22.871Z,26.17
2019-05-16T09:08:00.390Z,27.00
2019-05-16T09:12:57.350Z,26.00
2019-05-16T09:15:27.534Z,25.30
2019-05-16T09:17:58.257Z,25.97
2019-05-16T09:20:28.425Z,26.75
2019-05-16T09:22:58.749Z,25.12
2019-05-16T09:25:28.980Z,25.30
2019-05-16T09:27:59.116Z,26.23
2019-05-16T09:30:29.563Z,24.55
2019-05-16T09:33:01.492Z,26.00
2019-05-16T09:35:32.196Z,25.12
2019-05-16T09:38:02.345Z,24.25
2019-05-16T09:40:32.805Z,23.75
2019-05-16T09:43:02.969Z,24.10
2019-05-16T09:45:33.237Z,24.30
2019-05-16T09:48:03.447Z,23.90
2019-05-16T09:50:34.643Z,23.80
2019-05-16T09:53:07.167Z,22.85
2019-05-16T09:55:37.462Z,22.75
2019-05-16T09:58:07.799Z,23.52
2019-05-16T10:00:37.931Z,23.10
2019-05-16T10:03:08.212Z,23.25
2019-05-16T10:05:38.368Z,22.17
2019-05-16T10:08:09.551Z,23.07
2019-05-16T10:10:40.107Z,22.85
2019-05-16T10:13:11.308Z,23.02
2019-05-16T10:15:41.492Z,21.97
2019-05-16T10:18:11.610Z,22.48
2019-05-16T10:20:41.779Z,21.12
2019-05-16T10:23:14.972Z,21.97
2019-05-16T10:25:47.712Z,20.75
2019-05-16T10:28:17.292Z,21.73
2019-05-16T10:30:50.161Z,21.35
2019-05-16T10:33:21.803Z,21.02
2019-05-16T10:35:52.122Z,21.50
2019-05-16T10:38:23.191Z,20.52
2019-05-16T10:40:53.335Z,20.90
2019-05-16T10:43:26.486Z,21.57
2019-05-16T10:45:56.815Z,21.60
2019-05-16T10:48:27.241Z,20.60
2019-05-16T10:50:57.894Z,20.05
2019-05-16T10:53:58.010Z,20.95
2019-05-16T10:56:00.368Z,20.05
2019-05-16T10:58:37.039Z,20.05
2019-05-16T11:01:18.871Z,20.23
2019-05-16T11:03:34.350Z,19.12
2019-05-16T11:06:08.319Z,19.60
2019-05-16T11:08:39.255Z,18.98
2019-05-16T11:11:08.465Z,19.60
2019-05-16T11:13:38.647Z,19.98
2019-05-16T11:16:09.598Z,19.07
2019-05-16T11:18:40.528Z,19.37
2019-05-16T11:21:12.476Z,19.73
2019-05-16T11:23:42.844Z,19.37
2019-05-16T11:26:13.711Z,18.17
2019-05-16T11:28:43.862Z,19.07
2019-05-16T11:31:17.647Z,18.73
2019-05-16T11:33:48.260Z,18.30
2019-05-16T11:36:18.684Z,17.92
2019-05-16T11:38:48.953Z,18.25
2019-05-16T11:41:19.151Z,18.30
2019-05-16T11:43:49.297Z,18.00
2019-05-16T11:46:19.626Z,17.42
2019-05-16T11:48:49.316Z,17.75
2019-05-16T11:51:18.533Z,16.95
2019-05-16T11:53:47.823Z,17.20
2019-05-16T11:56:17.961Z,16.35
2019-05-16T11:58:48.121Z,15.80
2019-05-16T12:01:18.526Z,16.35
2019-05-16T12:03:48.660Z,15.53
2019-05-16T12:06:18.819Z,16.37
2019-05-16T12:08:48.988Z,15.72
2019-05-16T12:11:19.119Z,15.35
2019-05-16T12:13:51.327Z,16.20
2019-05-16T12:16:21.460Z,15.55
2019-05-16T12:18:51.936Z,16.90
2019-05-16T12:21:22.264Z,18.98
2019-05-16T12:23:52.393Z,38.73
2019-05-16T12:26:22.744Z,38.63
2019-05-16T12:28:52.911Z,53.20
2019-05-16T12:31:23.030Z,52.30
2019-05-16T12:33:53.189Z,49.75
2019-05-16T12:36:23.282Z,46.45
2019-05-16T12:38:53.437Z,47.95
2019-05-16T12:41:23.615Z,45.50
2019-05-16T12:43:53.790Z,44.30
2019-05-16T12:46:24.050Z,44.85
2019-05-16T12:48:54.170Z,42.65
2019-05-16T12:51:26.300Z,42.65
2019-05-16T12:53:57.272Z,42.43
2019-05-16T12:56:27.524Z,42.15
2019-05-16T12:58:57.631Z,40.25
2019-05-16T13:01:34.298Z,40.80
2019-05-16T13:04:00.451Z,40.35
2019-05-16T13:06:30.723Z,40.10
2019-05-16T13:09:00.932Z,38.67
2019-05-16T13:11:32.671Z,38.48
2019-05-16T13:14:06.874Z,39.30
2019-05-16T13:16:37.453Z,39.73
2019-05-16T13:19:07.123Z,38.67
2019-05-16T13:21:38.204Z,40.15
2019-05-16T13:24:08.303Z,38.75
2019-05-16T13:26:38.540Z,38.20
2019-05-16T13:29:09.447Z,38.02
2019-05-16T13:31:39.612Z,38.73
2019-05-16T13:34:09.739Z,38.00
2019-05-16T13:36:40.295Z,36.30
2019-05-16T13:39:10.421Z,38.33
2019-05-16T13:41:40.728Z,44.20
2019-05-16T13:44:18.508Z,81.22
2019-05-16T13:46:42.970Z,60.38
2019-05-16T13:49:13.134Z,39.50
2019-05-16T13:51:43.292Z,29.48
2019-05-16T13:54:13.423Z,24.20
2019-05-16T13:56:43.577Z,23.52
2019-05-16T13:59:13.844Z,20.12
2019-05-16T14:01:45.043Z,15.95
2019-05-16T14:04:17.366Z,11.97
2019-05-16T14:06:47.741Z,11.22
2019-05-16T14:09:18.008Z,10.58
2019-05-16T14:11:48.209Z,10.60
2019-05-16T14:14:33.638Z,9.90
2019-05-16T14:16:50.283Z,10.93
2019-05-16T14:19:20.460Z,12.23
2019-05-16T14:21:51.543Z,14.10
2019-05-16T14:24:21.654Z,15.85
2019-05-16T14:26:51.812Z,17.30
2019-05-16T14:29:21.955Z,18.02
2019-05-16T14:31:52.125Z,17.60
2019-05-16T14:34:22.244Z,18.82
2019-05-16T14:36:53.184Z,18.95
2019-05-16T14:39:23.553Z,18.48
2019-05-16T14:41:56.453Z,17.67
2019-05-16T14:44:28.583Z,18.95
2019-05-16T14:46:58.229Z,18.73
2019-05-16T14:49:28.995Z,17.15
2019-05-16T14:51:59.598Z,18.45
2019-05-16T14:54:29.726Z,20.97
2019-05-16T14:57:01.360Z,27.70
2019-05-16T14:59:31.815Z,28.85
2019-05-16T15:02:01.970Z,29.30
2019-05-16T15:04:32.124Z,23.80
2019-05-16T15:07:02.264Z,22.70
2019-05-16T15:09:32.628Z,19.55
2019-05-16T15:12:02.984Z,19.92
2019-05-16T15:14:33.368Z,44.50
2019-05-16T15:17:03.667Z,48.45
2019-05-16T15:19:33.843Z,43.35
2019-05-16T15:22:03.992Z,32.67
2019-05-16T15:24:34.123Z,22.50
2019-05-16T15:27:04.276Z,20.80
2019-05-16T15:29:34.622Z,17.27
2019-05-16T15:32:06.993Z,17.12
2019-05-16T15:34:38.106Z,18.25
2019-05-16T15:37:08.608Z,18.67
2019-05-16T15:39:38.764Z,18.95
2019-05-16T15:42:08.894Z,20.30
2019-05-16T15:44:39.041Z,17.87
2019-05-16T15:47:09.282Z,18.95
2019-05-16T15:49:39.434Z,17.65
2019-05-16T15:52:09.725Z,16.85
2019-05-16T15:54:40.008Z,16.12
2019-05-16T15:57:10.161Z,14.87
2019-05-16T15:59:40.382Z,13.80
2019-05-16T16:02:10.553Z,11.20
2019-05-16T16:04:40.819Z,8.35
2019-05-16T16:07:10.980Z,32.03
2019-05-16T16:09:41.992Z,25.77
2019-05-16T16:12:12.109Z,27.27
2019-05-16T16:14:42.288Z,14.03
2019-05-16T16:17:12.637Z,22.45
2019-05-16T16:19:42.975Z,25.77
2019-05-16T16:22:13.499Z,12.55
2019-05-16T16:24:44.049Z,7.65
2019-05-16T16:27:16.586Z,9.65
2019-05-16T16:29:48.100Z,9.78
2019-05-16T16:32:18.237Z,8.50
2019-05-16T16:34:49.127Z,8.53
2019-05-16T16:37:19.284Z,14.00
2019-05-16T16:39:49.413Z,23.77
2019-05-16T16:42:19.669Z,22.93
2019-05-16T16:44:49.891Z,25.40
2019-05-16T16:47:20.123Z,24.07
2019-05-16T16:49:50.345Z,23.85
2019-05-16T16:52:20.624Z,22.37
2019-05-16T16:54:50.769Z,22.98
2019-05-16T16:57:20.995Z,23.27
2019-05-16T16:59:51.122Z,24.27
2019-05-16T17:02:22.362Z,24.27
2019-05-16T17:04:52.499Z,25.32
2019-05-16T17:07:22.828Z,27.58
2019-05-16T17:09:53.026Z,29.07
2019-05-16T17:12:23.881Z,30.20
2019-05-16T17:14:54.007Z,30.00
2019-05-16T17:17:26.465Z,33.05
2019-05-16T17:19:57.241Z,32.42
2019-05-16T17:22:27.488Z,34.50
2019-05-16T17:24:57.832Z,35.50
2019-05-16T17:27:28.075Z,35.85
2019-05-16T17:30:00.763Z,35.78
2019-05-16T17:32:30.309Z,36.15
2019-05-16T17:35:00.636Z,36.58
2019-05-16T17:37:31.061Z,42.60
2019-05-16T17:40:01.293Z,44.18
2019-05-16T17:42:34.479Z,49.03
2019-05-16T17:45:03.439Z,52.27
2019-05-16T17:47:37.071Z,52.98
2019-05-16T17:50:08.591Z,54.10
2019-05-16T17:52:38.928Z,52.98
2019-05-16T17:55:09.885Z,51.92
2019-05-16T17:57:41.081Z,52.83
2019-05-16T18:00:13.055Z,55.58
2019-05-16T18:02:43.355Z,56.13
2019-05-16T18:05:13.562Z,54.70
2019-05-16T18:07:43.791Z,54.10
2019-05-16T18:10:16.467Z,53.00
2019-05-16T18:12:48.076Z,55.05
2019-05-16T18:15:21.198Z,53.87
2019-05-16T18:17:51.436Z,53.05
2019-05-16T18:20:22.431Z,53.23
2019-05-16T18:22:52.895Z,51.10
2019-05-16T18:25:23.127Z,51.55
2019-05-16T18:27:53.271Z,50.92
2019-05-16T18:30:27.280Z,51.23
2019-05-16T18:32:57.439Z,49.93
2019-05-16T18:35:27.656Z,49.80
2019-05-16T18:37:57.908Z,49.20
2019-05-16T18:40:28.063Z,49.85
2019-05-16T18:42:58.397Z,48.45
2019-05-16T18:45:28.714Z,52.98
2019-05-16T18:47:58.979Z,53.58
2019-05-16T18:50:29.133Z,52.25
2019-05-16T18:52:59.486Z,53.20
2019-05-16T18:55:29.643Z,50.10
2019-05-16T18:58:00.087Z,50.65
2019-05-16T19:00:31.171Z,51.20
2019-05-16T19:03:01.442Z,52.30
2019-05-16T19:05:31.649Z,47.48
2019-05-16T19:08:01.960Z,48.40
2019-05-16T19:10:32.163Z,48.73
2019-05-16T19:13:02.830Z,46.70
2019-05-16T19:15:33.007Z,47.20
2019-05-16T19:18:03.223Z,45.28
2019-05-16T19:20:33.378Z,46.15
2019-05-16T19:23:03.659Z,43.60
2019-05-16T19:25:33.874Z,45.38
2019-05-16T19:28:06.523Z,45.05
2019-05-16T19:30:37.565Z,44.60
2019-05-16T19:33:08.029Z,44.15
2019-05-16T19:35:38.472Z,43.95
2019-05-16T19:38:08.812Z,43.40
2019-05-16T19:40:40.622Z,42.67
2019-05-16T19:43:10.855Z,43.58
2019-05-16T19:45:41.021Z,44.45
2019-05-16T19:48:11.218Z,44.10
2019-05-16T19:50:41.389Z,43.28
2019-05-16T19:53:11.606Z,42.88
2019-05-16T19:55:41.812Z,45.90
2019-05-16T19:58:12.889Z,43.48
2019-05-16T20:00:46.410Z,46.23
2019-05-16T20:03:16.740Z,47.48
2019-05-16T20:05:47.689Z,45.00
2019-05-16T20:08:17.971Z,39.53
2019-05-16T20:10:49.625Z,40.03
2019-05-16T20:13:20.009Z,42.40
2019-05-16T20:15:50.223Z,45.45
2019-05-16T20:18:20.471Z,49.18
2019-05-16T20:20:50.709Z,53.13
2019-05-16T20:23:20.880Z,54.98
2019-05-16T20:25:51.001Z,48.75
2019-05-16T20:28:21.154Z,50.23
2019-05-16T20:30:51.309Z,51.33
2019-05-16T20:33:21.672Z,50.78
2019-05-16T20:35:51.797Z,50.40
2019-05-16T20:38:21.959Z,54.55
2019-05-16T20:40:52.102Z,51.88
2019-05-16T20:43:22.309Z,50.55
2019-05-16T20:45:53.503Z,53.02
2019-05-16T20:48:23.671Z,63.28
2019-05-16T20:50:56.456Z,59.00
2019-05-16T20:53:27.136Z,69.92
2019-05-16T20:55:57.496Z,66.67
2019-05-16T20:58:27.928Z,64.00
2019-05-16T21:01:01.488Z,65.80
2019-05-16T21:03:29.908Z,68.28
2019-05-16T21:06:00.195Z,67.62
2019-05-16T21:08:30.403Z,71.60
2019-05-16T21:11:00.720Z,68.85
2019-05-16T21:13:31.284Z,72.22
2019-05-16T21:16:02.479Z,77.37
2019-05-16T21:18:32.732Z,78.60
2019-05-16T21:21:02.861Z,82.95
2019-05-16T21:23:33.028Z,85.30
2019-05-16T21:26:03.154Z,81.45
2019-05-16T21:28:33.382Z,82.27
2019-05-16T21:31:03.555Z,92.82
2019-05-16T21:33:33.769Z,82.45
2019-05-16T21:36:03.990Z,82.72
2019-05-16T21:38:36.391Z,82.72
2019-05-16T21:41:07.221Z,80.87
2019-05-16T21:43:37.791Z,82.10
2019-05-16T21:46:07.935Z,82.57
2019-05-16T21:48:38.112Z,86.20
2019-05-16T21:51:08.296Z,84.40
2019-05-16T21:53:38.428Z,87.30
2019-05-16T21:56:08.749Z,88.07
2019-05-16T21:58:39.037Z,87.02
2019-05-16T22:01:09.231Z,88.85
2019-05-16T22:03:41.037Z,90.12
2019-05-16T22:06:11.247Z,90.60
2019-05-16T22:08:41.482Z,90.80
2019-05-16T22:11:11.819Z,92.20
2019-05-16T22:13:43.011Z,93.90
2019-05-16T22:16:14.078Z,93.27
2019-05-16T22:18:47.469Z,90.72
2019-05-16T22:21:18.977Z,94.72
2019-05-16T22:23:50.000Z,95.85
2019-05-16T22:26:21.567Z,90.87
2019-05-16T22:28:53.789Z,94.15
2019-05-16T22:31:26.912Z,91.90
2019-05-16T22:33:58.595Z,96.85
2019-05-16T22:36:29.969Z,94.75
2019-05-16T22:39:01.690Z,96.55
2019-05-16T22:41:34.229Z,95.28
2019-05-16T22:44:08.641Z,92.35
2019-05-16T22:46:38.363Z,94.20
2019-05-16T22:49:09.194Z,94.22
2019-05-16T22:51:40.591Z,93.05
2019-05-16T22:54:11.676Z,91.65
2019-05-16T22:56:42.696Z,94.13
2019-05-16T22:59:13.309Z,95.83
2019-05-16T23:01:43.513Z,92.35
2019-05-16T23:04:13.639Z,94.10
2019-05-16T23:06:43.773Z,93.75
2019-05-16T23:09:16.290Z,93.42
2019-05-16T23:11:46.018Z,91.90
2019-05-16T23:14:17.020Z,92.67
2019-05-16T23:16:47.440Z,90.95
2019-05-16T23:19:17.620Z,91.78
2019-05-16T23:21:47.744Z,93.97
2019-05-16T23:24:17.884Z,93.20
2019-05-16T23:26:48.076Z,91.57
2019-05-16T23:29:19.207Z,88.12
2019-05-16T23:31:50.886Z,89.45
2019-05-16T23:34:21.191Z,93.42
2019-05-16T23:36:51.310Z,92.35
2019-05-16T23:39:21.549Z,89.90
2019-05-16T23:41:51.688Z,90.72
2019-05-16T23:44:22.048Z,89.47
2019-05-16T23:46:52.268Z,89.32
2019-05-16T23:49:22.521Z,89.67
2019-05-16T23:51:52.821Z,92.42
2019-05-16T23:54:23.088Z,87.90
2019-05-16T23:56:53.350Z,85.00
2019-05-16T23:59:23.643Z,86.08
